sensor_id;sensor_type;location;lat;lon;timestamp;pressure;altitude;pressure_sealevel;temperature;humidity
11487;BME280;10510;47.942;9.442;2023-02-23T00:01:50;94256.41;;;6.06;100.00
11487;BME280;10510;47.942;9.442;2023-02-23T00:03:53;94256.41;;;6.06;100.00
11487;BME280;10510;47.942;9.442;2023-02-23T00:05:54;94258.53;;;6.10;100.00
11487;BME280;10510;47.942;9.442;2023-02-23T00:07:54;94255.28;;;6.17;100.00
11487;BME280;10510;47.942;9.442;2023-02-23T00:09:55;94247.00;;;6.21;100.00
11487;BME280;10510;47.942;9.442;2023-02-23T00:11:56;94254.44;;;6.24;100.00
11487;BME280;10510;47.942;9.442;2023-02-23T00:13:56;94248.94;;;6.27;100.00
11487;BME280;10510;47.942;9.442;2023-02-23T00:15:57;94250.19;;;6.31;100.00
11487;BME280;10510;47.942;9.442;2023-02-23T00:17:57;94255.25;;;6.33;100.00
11487;BME280;10510;47.942;9.442;2023-02-23T00:19:57;94253.91;;;6.37;100.00
11487;BME280;10510;47.942;9.442;2023-02-23T00:21:58;94242.41;;;6.40;100.00
11487;BME280;10510;47.942;9.442;2023-02-23T00:24:01;94249.69;;;6.44;100.00
11487;BME280;10510;47.942;9.442;2023-02-23T00:26:03;94252.13;;;6.46;100.00
11487;BME280;10510;47.942;9.442;2023-02-23T00:28:03;94244.78;;;6.49;100.00
11487;BME280;10510;47.942;9.442;2023-02-23T00:30:06;94252.25;;;6.52;100.00
11487;BME280;10510;47.942;9.442;2023-02-23T00:32:07;94248.50;;;6.55;100.00
11487;BME280;10510;47.942;9.442;2023-02-23T00:34:09;94244.78;;;6.57;100.00
11487;BME280;10510;47.942;9.442;2023-02-23T00:36:13;94246.22;;;6.60;100.00
11487;BME280;10510;47.942;9.442;2023-02-23T00:38:13;94252.06;;;6.62;100.00
11487;BME280;10510;47.942;9.442;2023-02-23T00:40:15;94251.72;;;6.65;100.00
11487;BME280;10510;47.942;9.442;2023-02-23T00:42:15;94246.19;;;6.68;100.00
11487;BME280;10510;47.942;9.442;2023-02-23T00:44:16;94252.66;;;6.72;100.00
11487;BME280;10510;47.942;9.442;2023-02-23T00:46:17;94254.13;;;6.75;100.00
11487;BME280;10510;47.942;9.442;2023-02-23T00:48:20;94247.94;;;6.76;100.00
11487;BME280;10510;47.942;9.442;2023-02-23T00:50:20;94249.38;;;6.78;100.00
11487;BME280;10510;47.942;9.442;2023-02-23T00:52:20;94246.63;;;6.80;100.00
11487;BME280;10510;47.942;9.442;2023-02-23T00:54:21;94249.06;;;6.81;100.00
11487;BME280;10510;47.942;9.442;2023-02-23T00:56:22;94245.31;;;6.84;100.00
11487;BME280;10510;47.942;9.442;2023-02-23T00:58:24;94242.72;;;6.84;100.00
11487;BME280;10510;47.942;9.442;2023-02-23T01:00:25;94247.75;;;6.86;100.00
11487;BME280;10510;47.942;9.442;2023-02-23T01:02:27;94247.75;;;6.86;100.00
11487;BME280;10510;47.942;9.442;2023-02-23T01:04:29;94243.34;;;6.86;100.00
11487;BME280;10510;47.942;9.442;2023-02-23T01:06:31;94242.56;;;6.86;100.00
11487;BME280;10510;47.942;9.442;2023-02-23T01:08:32;94246.91;;;6.85;100.00
11487;BME280;10510;47.942;9.442;2023-02-23T01:10:33;94241.56;;;6.87;100.00
11487;BME280;10510;47.942;9.442;2023-02-23T01:12:35;94243.34;;;6.86;100.00
11487;BME280;10510;47.942;9.442;2023-02-23T01:14:36;94244.31;;;6.85;100.00
11487;BME280;10510;47.942;9.442;2023-02-23T01:16:37;94239.13;;;6.85;100.00
11487;BME280;10510;47.942;9.442;2023-02-23T01:18:39;94242.56;;;6.86;100.00
11487;BME280;10510;47.942;9.442;2023-02-23T01:20:39;94236.53;;;6.85;100.00
11487;BME280;10510;47.942;9.442;2023-02-23T01:22:44;94224.53;;;6.84;100.00
11487;BME280;10510;47.942;9.442;2023-02-23T01:24:45;94226.97;;;6.86;100.00
11487;BME280;10510;47.942;9.442;2023-02-23T01:26:46;94227.13;;;6.84;100.00
11487;BME280;10510;47.942;9.442;2023-02-23T01:28:51;94234.13;;;6.83;100.00
11487;BME280;10510;47.942;9.442;2023-02-23T01:30:52;94233.31;;;6.83;100.00
11487;BME280;10510;47.942;9.442;2023-02-23T01:32:52;94232.50;;;6.82;100.00
11487;BME280;10510;47.942;9.442;2023-02-23T01:34:52;94234.28;;;6.82;100.00
11487;BME280;10510;47.942;9.442;2023-02-23T01:36:52;94226.47;;;6.82;100.00
11487;BME280;10510;47.942;9.442;2023-02-23T01:38:53;94221.47;;;6.80;100.00
11487;BME280;10510;47.942;9.442;2023-02-23T01:40:55;94221.47;;;6.80;100.00
11487;BME280;10510;47.942;9.442;2023-02-23T01:43:18;94236.25;;;6.80;100.00
11487;BME280;10510;47.942;9.442;2023-02-23T01:45:34;94233.66;;;6.80;100.00
11487;BME280;10510;47.942;9.442;2023-02-23T01:47:34;94224.88;;;6.81;100.00
11487;BME280;10510;47.942;9.442;2023-02-23T01:49:34;94229.25;;;6.80;100.00
11487;BME280;10510;47.942;9.442;2023-02-23T01:51:39;94225.66;;;6.81;100.00
11487;BME280;10510;47.942;9.442;2023-02-23T01:53:45;94223.88;;;6.82;100.00
11487;BME280;10510;47.942;9.442;2023-02-23T01:55:49;94216.91;;;6.82;100.00
11487;BME280;10510;47.942;9.442;2023-02-23T01:58:00;94212.69;;;6.81;100.00
11487;BME280;10510;47.942;9.442;2023-02-23T02:00:02;94216.91;;;6.82;100.00
11487;BME280;10510;47.942;9.442;2023-02-23T02:02:03;94215.13;;;6.83;100.00
11487;BME280;10510;47.942;9.442;2023-02-23T02:04:04;94217.38;;;6.86;100.00
11487;BME280;10510;47.942;9.442;2023-02-23T02:06:07;94219.34;;;6.84;100.00
11487;BME280;10510;47.942;9.442;2023-02-23T02:08:09;94214.94;;;6.85;100.00
11487;BME280;10510;47.942;9.442;2023-02-23T02:10:10;94217.38;;;6.86;100.00
11487;BME280;10510;47.942;9.442;2023-02-23T02:12:11;94215.59;;;6.87;100.00
11487;BME280;10510;47.942;9.442;2023-02-23T02:14:16;94216.25;;;6.89;100.00
11487;BME280;10510;47.942;9.442;2023-02-23T02:25:59;94210.41;;;6.87;100.00
11487;BME280;10510;47.942;9.442;2023-02-23T02:39:55;94207.75;;;6.95;100.00
11487;BME280;10510;47.942;9.442;2023-02-23T02:42:34;94205.97;;;6.95;100.00
11487;BME280;10510;47.942;9.442;2023-02-23T02:44:48;94203.19;;;6.97;100.00
11487;BME280;10510;47.942;9.442;2023-02-23T02:46:56;94204.00;;;6.97;100.00
11487;BME280;10510;47.942;9.442;2023-02-23T02:49:14;94200.41;;;6.98;100.00
11487;BME280;10510;47.942;9.442;2023-02-23T02:51:51;94201.88;;;7.01;100.00
11487;BME280;10510;47.942;9.442;2023-02-23T02:54:01;94194.72;;;7.03;100.00
11487;BME280;10510;47.942;9.442;2023-02-23T02:56:06;94204.94;;;7.04;100.00
11487;BME280;10510;47.942;9.442;2023-02-23T02:58:09;94197.13;;;7.04;100.00
11487;BME280;10510;47.942;9.442;2023-02-23T03:00:23;94199.72;;;7.04;100.00
11487;BME280;10510;47.942;9.442;2023-02-23T03:02:44;94201.53;;;7.04;100.00
11487;BME280;10510;47.942;9.442;2023-02-23T03:07:39;94205.44;;;7.00;100.00
11487;BME280;10510;47.942;9.442;2023-02-23T03:10:13;94199.63;;;6.98;100.00
11487;BME280;10510;47.942;9.442;2023-02-23T03:15:19;94203.19;;;6.97;100.00
11487;BME280;10510;47.942;9.442;2023-02-23T03:18:40;94196.38;;;6.96;100.00
11487;BME280;10510;47.942;9.442;2023-02-23T03:22:58;94197.19;;;6.96;100.00
11487;BME280;10510;47.942;9.442;2023-02-23T03:30:29;94199.63;;;6.98;100.00
11487;BME280;10510;47.942;9.442;2023-02-23T03:32:55;94204.81;;;6.98;100.00
11487;BME280;10510;47.942;9.442;2023-02-23T03:35:34;94204.00;;;6.97;100.00
11487;BME280;10510;47.942;9.442;2023-02-23T03:38:05;94197.97;;;6.97;100.00
11487;BME280;10510;47.942;9.442;2023-02-23T03:40:33;94208.38;;;6.97;100.00
11487;BME280;10510;47.942;9.442;2023-02-23T03:42:56;94205.78;;;6.97;100.00
11487;BME280;10510;47.942;9.442;2023-02-23T03:45:19;94202.56;;;6.95;100.00
11487;BME280;10510;47.942;9.442;2023-02-23T03:47:40;94205.50;;;6.92;100.00
11487;BME280;10510;47.942;9.442;2023-02-23T03:50:03;94206.66;;;6.89;100.00
11487;BME280;10510;47.942;9.442;2023-02-23T03:52:38;94204.06;;;6.89;100.00
11487;BME280;10510;47.942;9.442;2023-02-23T03:55:03;94202.25;;;6.90;100.00
11487;BME280;10510;47.942;9.442;2023-02-23T03:57:24;94207.44;;;6.90;100.00
11487;BME280;10510;47.942;9.442;2023-02-23T03:59:56;94211.03;;;6.89;100.00
11487;BME280;10510;47.942;9.442;2023-02-23T04:02:17;94205.19;;;6.87;100.00
11487;BME280;10510;47.942;9.442;2023-02-23T04:04:37;94210.53;;;6.85;100.00
11487;BME280;10510;47.942;9.442;2023-02-23T04:06:58;94211.38;;;6.86;100.00
11487;BME280;10510;47.942;9.442;2023-02-23T04:09:19;94206.34;;;6.84;100.00
11487;BME280;10510;47.942;9.442;2023-02-23T04:11:49;94208.13;;;6.83;100.00
11487;BME280;10510;47.942;9.442;2023-02-23T04:14:16;94214.13;;;6.84;100.00
11487;BME280;10510;47.942;9.442;2023-02-23T04:16:17;94208.13;;;6.83;100.00
11487;BME280;10510;47.942;9.442;2023-02-23T04:18:27;94210.72;;;6.83;100.00
11487;BME280;10510;47.942;9.442;2023-02-23T04:20:28;94208.13;;;6.83;100.00
11487;BME280;10510;47.942;9.442;2023-02-23T04:22:28;94214.13;;;6.84;100.00
11487;BME280;10510;47.942;9.442;2023-02-23T04:24:29;94211.72;;;6.82;100.00
11487;BME280;10510;47.942;9.442;2023-02-23T04:26:29;94205.69;;;6.82;100.00
11487;BME280;10510;47.942;9.442;2023-02-23T04:28:29;94210.09;;;6.81;100.00
11487;BME280;10510;47.942;9.442;2023-02-23T04:30:30;94210.88;;;6.82;100.00
11487;BME280;10510;47.942;9.442;2023-02-23T04:32:30;94207.34;;;6.83;100.00
11487;BME280;10510;47.942;9.442;2023-02-23T04:34:31;94208.94;;;6.84;100.00
11487;BME280;10510;47.942;9.442;2023-02-23T04:36:31;94211.53;;;6.84;100.00
11487;BME280;10510;47.942;9.442;2023-02-23T04:38:31;94213.97;;;6.86;100.00
11487;BME280;10510;47.942;9.442;2023-02-23T04:40:32;94211.38;;;6.86;100.00
11487;BME280;10510;47.942;9.442;2023-02-23T04:42:32;94210.41;;;6.87;100.00
11487;BME280;10510;47.942;9.442;2023-02-23T04:44:32;94213.00;;;6.87;100.00
11487;BME280;10510;47.942;9.442;2023-02-23T04:46:32;94219.78;;;6.88;100.00
11487;BME280;10510;47.942;9.442;2023-02-23T04:48:33;94216.56;;;6.86;100.00
11487;BME280;10510;47.942;9.442;2023-02-23T04:50:33;94219.19;;;6.86;100.00
11487;BME280;10510;47.942;9.442;2023-02-23T04:52:34;94215.75;;;6.85;100.00
11487;BME280;10510;47.942;9.442;2023-02-23T04:54:38;94218.34;;;6.85;100.00
11487;BME280;10510;47.942;9.442;2023-02-23T04:56:38;94214.78;;;6.86;100.00
11487;BME280;10510;47.942;9.442;2023-02-23T04:58:39;94214.59;;;6.88;100.00
11487;BME280;10510;47.942;9.442;2023-02-23T05:00:39;94215.59;;;6.87;100.00
11487;BME280;10510;47.942;9.442;2023-02-23T05:02:40;94213.78;;;6.87;100.00
11487;BME280;10510;47.942;9.442;2023-02-23T05:04:40;94214.59;;;6.88;100.00
11487;BME280;10510;47.942;9.442;2023-02-23T05:06:40;94208.44;;;6.89;100.00
11487;BME280;10510;47.942;9.442;2023-02-23T05:08:42;94214.25;;;6.91;100.00
11487;BME280;10510;47.942;9.442;2023-02-23T05:10:42;94212.66;;;6.90;100.00
11487;BME280;10510;47.942;9.442;2023-02-23T05:12:44;94209.91;;;6.91;100.00
11487;BME280;10510;47.942;9.442;2023-02-23T05:14:45;94208.91;;;6.92;100.00
11487;BME280;10510;47.942;9.442;2023-02-23T05:16:46;94215.56;;;6.95;100.00
11487;BME280;10510;47.942;9.442;2023-02-23T05:18:47;94219.75;;;6.96;100.00
11487;BME280;10510;47.942;9.442;2023-02-23T05:20:47;94208.56;;;6.95;100.00
11487;BME280;10510;47.942;9.442;2023-02-23T05:22:47;94208.22;;;6.98;100.00
11487;BME280;10510;47.942;9.442;2023-02-23T05:24:48;94208.38;;;6.97;100.00
11487;BME280;10510;47.942;9.442;2023-02-23T05:26:48;94209.22;;;6.97;100.00
11487;BME280;10510;47.942;9.442;2023-02-23T05:28:48;94211.16;;;6.95;100.00
11487;BME280;10510;47.942;9.442;2023-02-23T05:30:49;94221.56;;;6.95;100.00
11487;BME280;10510;47.942;9.442;2023-02-23T05:32:49;94219.75;;;6.96;100.00
11487;BME280;10510;47.942;9.442;2023-02-23T05:34:50;94214.75;;;6.94;100.00
11487;BME280;10510;47.942;9.442;2023-02-23T05:36:50;94217.34;;;6.94;100.00
11487;BME280;10510;47.942;9.442;2023-02-23T05:38:51;94219.94;;;6.94;100.00
11487;BME280;10510;47.942;9.442;2023-02-23T05:40:51;94225.13;;;6.94;100.00
11487;BME280;10510;47.942;9.442;2023-02-23T05:42:57;94213.09;;;6.93;100.00
11487;BME280;10510;47.942;9.442;2023-02-23T05:44:58;94217.50;;;6.93;100.00
11487;BME280;10510;47.942;9.442;2023-02-23T05:46:58;94217.50;;;6.93;100.00
11487;BME280;10510;47.942;9.442;2023-02-23T05:48:59;94219.94;;;6.94;100.00
11487;BME280;10510;47.942;9.442;2023-02-23T05:51:02;94214.91;;;6.93;100.00
11487;BME280;10510;47.942;9.442;2023-02-23T05:53:02;94223.50;;;6.93;100.00
11487;BME280;10510;47.942;9.442;2023-02-23T05:55:03;94214.09;;;6.92;100.00
11487;BME280;10510;47.942;9.442;2023-02-23T05:57:04;94221.91;;;6.92;100.00
11487;BME280;10510;47.942;9.442;2023-02-23T05:59:04;94225.47;;;6.91;100.00
11487;BME280;10510;47.942;9.442;2023-02-23T06:01:05;94222.06;;;6.91;100.00
11487;BME280;10510;47.942;9.442;2023-02-23T06:03:05;94219.63;;;6.89;100.00
11487;BME280;10510;47.942;9.442;2023-02-23T06:05:05;94224.84;;;6.89;100.00
11487;BME280;10510;47.942;9.442;2023-02-23T06:07:06;94222.41;;;6.88;100.00
11487;BME280;10510;47.942;9.442;2023-02-23T06:09:07;94223.38;;;6.87;100.00
11487;BME280;10510;47.942;9.442;2023-02-23T06:11:07;94227.59;;;6.88;100.00
11487;BME280;10510;47.942;9.442;2023-02-23T06:13:08;94225.00;;;6.88;100.00
11487;BME280;10510;47.942;9.442;2023-02-23T06:15:08;94224.84;;;6.89;100.00
11487;BME280;10510;47.942;9.442;2023-02-23T06:17:09;94223.19;;;6.88;100.00
11487;BME280;10510;47.942;9.442;2023-02-23T06:19:10;94229.22;;;6.89;100.00
11487;BME280;10510;47.942;9.442;2023-02-23T06:21:10;94223.03;;;6.90;100.00
11487;BME280;10510;47.942;9.442;2023-02-23T06:23:10;94224.66;;;6.91;100.00
11487;BME280;10510;47.942;9.442;2023-02-23T06:25:11;94229.03;;;6.90;100.00
11487;BME280;10510;47.942;9.442;2023-02-23T06:27:11;94229.03;;;6.90;100.00
11487;BME280;10510;47.942;9.442;2023-02-23T06:29:13;94235.38;;;6.88;100.00
11487;BME280;10510;47.942;9.442;2023-02-23T06:31:13;94231.19;;;6.87;100.00
11487;BME280;10510;47.942;9.442;2023-02-23T06:33:13;94237.34;;;6.86;100.00
11487;BME280;10510;47.942;9.442;2023-02-23T06:35:14;94240.56;;;6.88;100.00
11487;BME280;10510;47.942;9.442;2023-02-23T06:37:14;94244.97;;;6.87;100.00
11487;BME280;10510;47.942;9.442;2023-02-23T06:39:14;94248.72;;;6.85;100.00
11487;BME280;10510;47.942;9.442;2023-02-23T06:41:14;94252.94;;;6.86;100.00
11487;BME280;10510;47.942;9.442;2023-02-23T06:43:15;94254.91;;;6.83;100.00
11487;BME280;10510;47.942;9.442;2023-02-23T06:45:15;94250.50;;;6.84;100.00
11487;BME280;10510;47.942;9.442;2023-02-23T06:47:16;94255.69;;;6.84;100.00
11487;BME280;10510;47.942;9.442;2023-02-23T06:49:17;94251.31;;;6.85;100.00
11487;BME280;10510;47.942;9.442;2023-02-23T06:51:17;94253.56;;;6.88;100.00
11487;BME280;10510;47.942;9.442;2023-02-23T06:53:17;94255.19;;;6.89;100.00
11487;BME280;10510;47.942;9.442;2023-02-23T06:55:18;94258.59;;;6.89;100.00
11487;BME280;10510;47.942;9.442;2023-02-23T06:57:19;94263.63;;;6.91;100.00
11487;BME280;10510;47.942;9.442;2023-02-23T06:59:20;94262.81;;;6.90;100.00
11487;BME280;10510;47.942;9.442;2023-02-23T07:01:21;94263.63;;;6.91;100.00
11487;BME280;10510;47.942;9.442;2023-02-23T07:03:25;94262.66;;;6.92;100.00
11487;BME280;10510;47.942;9.442;2023-02-23T07:05:25;94259.72;;;6.95;100.00
11487;BME280;10510;47.942;9.442;2023-02-23T07:07:26;94267.50;;;6.95;100.00
11487;BME280;10510;47.942;9.442;2023-02-23T07:09:26;94269.94;;;6.96;100.00
11487;BME280;10510;47.942;9.442;2023-02-23T07:11:27;94277.56;;;6.98;100.00
11487;BME280;10510;47.942;9.442;2023-02-23T07:13:27;94279.16;;;6.99;100.00
11487;BME280;10510;47.942;9.442;2023-02-23T07:15:27;94273.63;;;7.02;100.00
11487;BME280;10510;47.942;9.442;2023-02-23T07:17:28;94273.47;;;7.03;100.00
11487;BME280;10510;47.942;9.442;2023-02-23T07:19:28;94280.28;;;7.04;100.00
11487;BME280;10510;47.942;9.442;2023-02-23T07:21:29;94280.13;;;7.06;100.00
11487;BME280;10510;47.942;9.442;2023-02-23T07:23:31;94276.34;;;7.09;100.00
11487;BME280;10510;47.942;9.442;2023-02-23T07:25:31;94277.19;;;7.09;100.00
11487;BME280;10510;47.942;9.442;2023-02-23T07:27:31;94277.47;;;7.14;100.00
11487;BME280;10510;47.942;9.442;2023-02-23T07:29:32;94278.13;;;7.16;100.00
11487;BME280;10510;47.942;9.442;2023-02-23T07:31:32;94281.53;;;7.17;100.00
11487;BME280;10510;47.942;9.442;2023-02-23T07:33:32;94274.53;;;7.17;100.00
11487;BME280;10510;47.942;9.442;2023-02-23T07:35:32;94291.56;;;7.20;100.00
11487;BME280;10510;47.942;9.442;2023-02-23T07:37:33;94279.22;;;7.22;100.00
11487;BME280;10510;47.942;9.442;2023-02-23T07:39:33;94283.28;;;7.24;100.00
11487;BME280;10510;47.942;9.442;2023-02-23T07:41:33;94284.72;;;7.27;100.00
11487;BME280;10510;47.942;9.442;2023-02-23T07:43:33;94281.94;;;7.28;100.00
11487;BME280;10510;47.942;9.442;2023-02-23T07:45:34;94285.84;;;7.33;100.00
11487;BME280;10510;47.942;9.442;2023-02-23T07:47:35;94280.44;;;7.34;100.00
11487;BME280;10510;47.942;9.442;2023-02-23T07:49:37;94292.28;;;7.37;100.00
11487;BME280;10510;47.942;9.442;2023-02-23T07:51:38;94284.16;;;7.40;100.00
11487;BME280;10510;47.942;9.442;2023-02-23T07:53:39;94293.09;;;7.37;100.00
11487;BME280;10510;47.942;9.442;2023-02-23T07:55:39;94287.56;;;7.40;100.00
11487;BME280;10510;47.942;9.442;2023-02-23T07:57:39;94279.59;;;7.42;100.00
11487;BME280;10510;47.942;9.442;2023-02-23T07:59:39;94286.41;;;7.43;100.00
11487;BME280;10510;47.942;9.442;2023-02-23T08:01:40;94287.06;;;7.45;100.00
11487;BME280;10510;47.942;9.442;2023-02-23T08:03:40;94286.72;;;7.48;100.00
11487;BME280;10510;47.942;9.442;2023-02-23T08:05:48;94287.50;;;7.48;100.00
11487;BME280;10510;47.942;9.442;2023-02-23T08:07:49;94285.56;;;7.50;100.00
11487;BME280;10510;47.942;9.442;2023-02-23T08:09:49;94293.16;;;7.52;100.00
11487;BME280;10510;47.942;9.442;2023-02-23T08:11:49;94289.59;;;7.53;100.00
11487;BME280;10510;47.942;9.442;2023-02-23T08:13:49;94282.78;;;7.52;100.00
11487;BME280;10510;47.942;9.442;2023-02-23T08:15:50;94297.06;;;7.56;100.00
11487;BME280;10510;47.942;9.442;2023-02-23T08:17:50;94282.88;;;7.59;100.00
11487;BME280;10510;47.942;9.442;2023-02-23T08:19:50;94292.78;;;7.63;100.00
11487;BME280;10510;47.942;9.442;2023-02-23T08:21:50;94284.63;;;7.66;100.00
11487;BME280;10510;47.942;9.442;2023-02-23T08:23:51;94289.13;;;7.72;100.00
11487;BME280;10510;47.942;9.442;2023-02-23T08:25:52;94291.84;;;7.79;100.00
11487;BME280;10510;47.942;9.442;2023-02-23T08:27:53;94286.56;;;7.87;100.00
11487;BME280;10510;47.942;9.442;2023-02-23T08:29:56;94288.47;;;7.93;100.00
11487;BME280;10510;47.942;9.442;2023-02-23T08:31:56;94290.22;;;8.01;100.00
11487;BME280;10510;47.942;9.442;2023-02-23T08:33:57;94294.06;;;8.05;100.00
11487;BME280;10510;47.942;9.442;2023-02-23T08:35:58;94284.75;;;8.11;100.00
11487;BME280;10510;47.942;9.442;2023-02-23T08:37:58;94286.84;;;8.15;100.00
11487;BME280;10510;47.942;9.442;2023-02-23T08:39:58;94284.50;;;8.20;100.00
11487;BME280;10510;47.942;9.442;2023-02-23T08:41:59;94290.34;;;8.23;100.00
11487;BME280;10510;47.942;9.442;2023-02-23T08:44:00;94282.53;;;8.23;100.00
11487;BME280;10510;47.942;9.442;2023-02-23T08:46:00;94289.81;;;8.27;100.00
11487;BME280;10510;47.942;9.442;2023-02-23T08:48:00;94283.91;;;8.33;100.00
11487;BME280;10510;47.942;9.442;2023-02-23T08:50:00;94286.16;;;8.36;100.00
11487;BME280;10510;47.942;9.442;2023-02-23T08:52:01;94294.75;;;8.37;100.00
11487;BME280;10510;47.942;9.442;2023-02-23T08:54:01;94291.03;;;8.39;100.00
11487;BME280;10510;47.942;9.442;2023-02-23T08:56:03;94290.69;;;8.43;100.00
11487;BME280;10510;47.942;9.442;2023-02-23T08:58:07;94287.06;;;8.44;100.00
11487;BME280;10510;47.942;9.442;2023-02-23T09:00:08;94291.47;;;8.43;100.00
11487;BME280;10510;47.942;9.442;2023-02-23T09:02:15;94294.28;;;8.41;100.00
11487;BME280;10510;47.942;9.442;2023-02-23T09:04:16;94293.44;;;8.41;100.00
11487;BME280;10510;47.942;9.442;2023-02-23T09:06:20;94295.69;;;8.44;100.00
11487;BME280;10510;47.942;9.442;2023-02-23T09:08:21;94287.06;;;8.44;100.00
11487;BME280;10510;47.942;9.442;2023-02-23T09:10:22;94288.06;;;8.43;100.00
11487;BME280;10510;47.942;9.442;2023-02-23T09:12:27;94290.47;;;8.44;100.00
11487;BME280;10510;47.942;9.442;2023-02-23T09:14:28;94293.56;;;8.48;100.00
11487;BME280;10510;47.942;9.442;2023-02-23T09:16:29;94289.97;;;8.49;100.00
11487;BME280;10510;47.942;9.442;2023-02-23T09:18:29;94291.41;;;8.51;100.00
11487;BME280;10510;47.942;9.442;2023-02-23T09:20:31;94287.44;;;8.55;100.00
11487;BME280;10510;47.942;9.442;2023-02-23T09:22:32;94290.31;;;8.60;100.00
11487;BME280;10510;47.942;9.442;2023-02-23T09:24:33;94292.56;;;8.63;100.00
11487;BME280;10510;47.942;9.442;2023-02-23T09:26:34;94298.59;;;8.64;100.00
11487;BME280;10510;47.942;9.442;2023-02-23T09:28:35;94294.72;;;8.60;100.00
11487;BME280;10510;47.942;9.442;2023-02-23T09:30:38;94288.72;;;8.59;100.00
11487;BME280;10510;47.942;9.442;2023-02-23T09:32:38;94292.28;;;8.58;100.00
11487;BME280;10510;47.942;9.442;2023-02-23T09:34:38;94293.72;;;8.61;100.00
11487;BME280;10510;47.942;9.442;2023-02-23T09:36:38;94296.19;;;8.62;100.00
11487;BME280;10510;47.942;9.442;2023-02-23T09:38:39;94295.81;;;8.66;100.00
11487;BME280;10510;47.942;9.442;2023-02-23T09:40:51;94288.53;;;8.61;100.00
11487;BME280;10510;47.942;9.442;2023-02-23T09:42:59;94294.91;;;8.58;100.00
11487;BME280;10510;47.942;9.442;2023-02-23T09:45:12;94289.59;;;8.67;100.00
11487;BME280;10510;47.942;9.442;2023-02-23T09:49:28;94293.13;;;8.89;100.00
11487;BME280;10510;47.942;9.442;2023-02-23T09:51:37;94300.00;;;8.96;100.00
11487;BME280;10510;47.942;9.442;2023-02-23T09:53:43;94302.44;;;8.98;100.00
11487;BME280;10510;47.942;9.442;2023-02-23T09:55:46;94295.34;;;9.06;100.00
11487;BME280;10510;47.942;9.442;2023-02-23T09:57:48;94299.25;;;9.17;100.00
11487;BME280;10510;47.942;9.442;2023-02-23T09:59:48;94297.34;;;9.26;100.00
11487;BME280;10510;47.942;9.442;2023-02-23T10:02:33;94299.06;;;9.33;100.00
11487;BME280;10510;47.942;9.442;2023-02-23T10:04:42;94292.94;;;9.41;100.00
11487;BME280;10510;47.942;9.442;2023-02-23T10:06:46;94296.78;;;9.45;100.00
11487;BME280;10510;47.942;9.442;2023-02-23T10:13:55;94297.69;;;9.74;100.00
11487;BME280;10510;47.942;9.442;2023-02-23T10:16:14;94303.00;;;9.87;100.00
11487;BME280;10510;47.942;9.442;2023-02-23T10:18:28;94294.81;;;9.90;100.00
11487;BME280;10510;47.942;9.442;2023-02-23T10:22:42;94287.78;;;10.12;100.00
11487;BME280;10510;47.942;9.442;2023-02-23T10:25:00;94292.50;;;10.23;100.00
11487;BME280;10510;47.942;9.442;2023-02-23T10:27:15;94288.88;;;10.24;100.00
11487;BME280;10510;47.942;9.442;2023-02-23T10:29:22;94294.66;;;10.41;100.00
11487;BME280;10510;47.942;9.442;2023-02-23T10:31:28;94292.16;;;10.96;100.00
11487;BME280;10510;47.942;9.442;2023-02-23T10:33:37;94287.06;;;11.23;100.00
11487;BME280;10510;47.942;9.442;2023-02-23T10:35:40;94293.16;;;11.43;100.00
11487;BME280;10510;47.942;9.442;2023-02-23T10:37:40;94287.41;;;11.81;100.00
11487;BME280;10510;47.942;9.442;2023-02-23T10:39:41;94284.66;;;12.22;100.00
11487;BME280;10510;47.942;9.442;2023-02-23T10:41:41;94291.28;;;12.58;100.00
11487;BME280;10510;47.942;9.442;2023-02-23T10:43:42;94284.81;;;12.81;100.00
11487;BME280;10510;47.942;9.442;2023-02-23T10:45:52;94287.97;;;13.03;100.00
11487;BME280;10510;47.942;9.442;2023-02-23T10:48:07;94285.25;;;13.43;100.00
11487;BME280;10510;47.942;9.442;2023-02-23T10:50:09;94283.63;;;13.80;100.00
11487;BME280;10510;47.942;9.442;2023-02-23T10:52:11;94275.03;;;14.23;100.00
11487;BME280;10510;47.942;9.442;2023-02-23T10:54:35;94274.25;;;14.72;100.00
11487;BME280;10510;47.942;9.442;2023-02-23T10:56:43;94268.47;;;15.19;100.00
11487;BME280;10510;47.942;9.442;2023-02-23T10:58:50;94269.91;;;15.52;100.00
11487;BME280;10510;47.942;9.442;2023-02-23T11:00:57;94258.78;;;15.68;100.00
11487;BME280;10510;47.942;9.442;2023-02-23T11:03:00;94266.06;;;15.84;100.00
11487;BME280;10510;47.942;9.442;2023-02-23T11:05:04;94267.16;;;16.07;100.00
11487;BME280;10510;47.942;9.442;2023-02-23T11:07:14;94263.88;;;16.47;100.00
11487;BME280;10510;47.942;9.442;2023-02-23T11:09:25;94260.44;;;16.58;100.00
11487;BME280;10510;47.942;9.442;2023-02-23T11:11:27;94250.69;;;16.58;100.00
11487;BME280;10510;47.942;9.442;2023-02-23T11:13:40;94256.31;;;16.27;100.00
11487;BME280;10510;47.942;9.442;2023-02-23T11:15:41;94257.59;;;15.94;100.00
11487;BME280;10510;47.942;9.442;2023-02-23T11:17:43;94254.13;;;15.82;100.00
11487;BME280;10510;47.942;9.442;2023-02-23T11:19:43;94253.66;;;15.85;100.00
11487;BME280;10510;47.942;9.442;2023-02-23T11:21:49;94250.78;;;16.17;100.00
11487;BME280;10510;47.942;9.442;2023-02-23T11:23:52;94239.47;;;16.51;100.00
11487;BME280;10510;47.942;9.442;2023-02-23T11:25:59;94249.78;;;16.76;100.00
11487;BME280;10510;47.942;9.442;2023-02-23T11:27:59;94236.16;;;16.68;100.00
11487;BME280;10510;47.942;9.442;2023-02-23T11:30:03;94244.06;;;16.56;100.00
11487;BME280;10510;47.942;9.442;2023-02-23T11:32:14;94238.88;;;16.49;100.00
11487;BME280;10510;47.942;9.442;2023-02-23T11:34:21;94239.00;;;16.54;100.00
11487;BME280;10510;47.942;9.442;2023-02-23T11:38:27;94231.09;;;16.66;100.00
11487;BME280;10510;47.942;9.442;2023-02-23T11:40:30;94221.34;;;16.55;100.00
11487;BME280;10510;47.942;9.442;2023-02-23T11:42:31;94227.94;;;15.99;100.00
11487;BME280;10510;47.942;9.442;2023-02-23T11:44:32;94224.97;;;15.95;100.00
11487;BME280;10510;47.942;9.442;2023-02-23T11:46:36;94215.81;;;15.98;100.00